Погода Узнацкий Уголна неделю

Минская область, Белоруссия

23 - 29 июля
  • 23июля
    Сегодня
    +15°
    +27°
    Ясно и безоблачно
    ВремяПогодаТемператураВлажностьДавлениеВетер, м/сВероятность осадков
    00:00Практически безоблачно+18°C93 %744 мм0.0 м/с2 %
    03:00Ясно и безоблачно+17°C95 %744 мм0.3 м/с2 %
    06:00Ясно и безоблачно+16°C97 %745 мм0.6 м/с2 %
    09:00Ясно и безоблачно+21°C84 %745 мм1.5 м/с2 %
    12:00Ясно и безоблачно+25°C62 %745 мм1.9 м/с3 %
    15:00Ясно и безоблачно+26°C54 %745 мм2.3 м/с21 %
    18:00Ясно и безоблачно+25°C53 %744 мм2.0 м/с13 %
    21:00Практически безоблачно+23°C72 %745 мм0.7 м/с3 %
  • 24июля
    Среда
    +15°
    +27°
    Облачно с прояснениями
    ВремяПогодаТемператураВлажностьДавлениеВетер, м/сВероятность осадков
    00:00Ясно и безоблачно+19°C81 %744 мм0.3 м/с2 %
    03:00Ясно и безоблачно+17°C81 %744 мм0.4 м/с2 %
    06:00Практически безоблачно+16°C83 %744 мм0.6 м/с2 %
    09:00Облачно с прояснениями+21°C67 %744 мм1.3 м/с2 %
    12:00Облачно с прояснениями+25°C47 %744 мм1.9 м/с6 %
    15:00Облачно с прояснениями+26°C44 %743 мм2.3 м/с12 %
    18:00Небольшая облачность+25°C56 %743 мм2.0 м/с13 %
    21:00Практически безоблачно+22°C72 %743 мм1.1 м/с2 %
  • 25июля
    Четверг
    +15°
    +27°
    Облачно с прояснениями
    ВремяПогодаТемператураВлажностьДавлениеВетер, м/сВероятность осадков
    00:00Небольшая облачность+19°C78 %743 мм0.7 м/с2 %
    03:00Ясно и безоблачно+16°C77 %742 мм0.7 м/с2 %
    06:00Ясно и безоблачно+15°C78 %742 мм0.9 м/с2 %
    09:00Ясно и безоблачно+21°C64 %742 мм1.7 м/с2 %
    12:00Облачно с прояснениями+25°C41 %742 мм2.3 м/с2 %
    15:00Облачно с прояснениями+26°C40 %742 мм2.6 м/с3 %
    18:00Небольшая облачность+25°C45 %742 мм1.7 м/с3 %
    21:00Ясно и безоблачно+22°C58 %742 мм0.8 м/с2 %
  • 26июля
    Пятница
    +16°
    +27°
    Практически безоблачно
    ВремяПогодаТемператураВлажностьДавлениеВетер, м/сВероятность осадков
    00:00Ясно и безоблачно+18°C72 %742 мм0.4 м/с2 %
    03:00Ясно и безоблачно+16°C81 %742 мм0.6 м/с2 %
    06:00Практически безоблачно+16°C80 %743 мм0.4 м/с2 %
    09:00Ясно и безоблачно+21°C60 %743 мм0.9 м/с6 %
    12:00Практически безоблачно+26°C43 %744 мм1.5 м/с8 %
    15:00Практически безоблачно+26°C38 %744 мм1.9 м/с22 %
    18:00Небольшая облачность+24°C37 %744 мм1.3 м/с28 %
    21:00Ясно и безоблачно+21°C65 %745 мм0.9 м/с14 %
  • 27июля
    Суббота
    +17°
    +27°
    Облачно с прояснениями
    ВремяПогодаТемператураВлажностьДавлениеВетер, м/сВероятность осадков
    00:00Ясно и безоблачно+18°C83 %746 мм0.1 м/с2 %
    03:00Ясно и безоблачно+17°C90 %746 мм0.4 м/с4 %
    06:00Ясно и безоблачно+17°C90 %747 мм0.5 м/с4 %
    09:00Ясно и безоблачно+22°C68 %747 мм1.2 м/с2 %
    12:00Практически безоблачно+27°C40 %748 мм1.7 м/с12 %
    15:00Облачно с прояснениями+25°C36 %748 мм1.6 м/с29 %
    18:00Практически безоблачно+26°C37 %747 мм1.9 м/с43 %
    21:00Практически безоблачно+23°C61 %748 мм0.7 м/с14 %
Мы используем cookies
Соглашаюсь